Time;durP1;ratioP1;P1;durP2;ratioP2;P2;SDS_P1;SDS_P2;PMS_P1;PMS_P2;Temp;Humidity;BMP_temperature;BMP_pressure;BME280_temperature;BME280_humidity;BME280_pressure;Samples;Min_cycle;Max_cycle;Signal;HPM_P1;HPM_P2
2021/12/11 00:04:16;;;;;;;40.77;18.73;;;1.90;99.90;;;-0.32;100.00;99119.06;10399797;27;97024;-81
2021/12/11 00:09:26;;;;;;;39.20;18.73;;;1.90;99.90;;;-0.27;100.00;99118.69;10410006;28;96624;-78
2021/12/11 00:14:31;;;;;;;42.93;19.50;;;2.00;99.90;;;-0.25;100.00;99132.44;10421984;28;96536;-78
2021/12/11 00:19:38;;;;;;;41.10;18.90;;;1.90;99.90;;;-0.22;100.00;99149.66;10393405;27;96779;-78
2021/12/11 00:24:44;;;;;;;42.83;18.57;;;2.00;99.90;;;-0.20;100.00;99145.13;10410147;28;96578;-78
2021/12/11 00:29:47;;;;;;;49.50;21.13;;;2.00;99.90;;;-0.19;100.00;99157.22;10401908;28;96490;-78
2021/12/11 00:34:53;;;;;;;46.10;21.70;;;2.00;99.90;;;-0.17;100.00;99168.38;10410603;28;96644;-78
2021/12/11 00:40:10;;;;;;;47.27;21.37;;;2.00;99.90;;;-0.16;100.00;99176.09;10421801;27;98291;-78
2021/12/11 00:45:19;;;;;;;43.10;20.90;;;2.00;99.90;;;-0.15;100.00;99176.91;10399970;27;96705;-78
2021/12/11 00:50:40;;;;;;;45.63;20.77;;;2.10;99.90;;;-0.14;100.00;99189.00;10394355;28;96680;-78
2021/12/11 00:56:00;;;;;;;45.97;18.57;;;2.10;99.90;;;-0.15;100.00;99203.84;10403512;28;98065;-78
2021/12/11 01:01:06;;;;;;;46.00;20.90;;;2.10;99.90;;;-0.15;100.00;99214.28;10410614;28;96637;-78
2021/12/11 01:06:34;;;;;;;50.30;22.23;;;2.00;99.90;;;-0.15;100.00;99222.13;10403289;27;96872;-78
2021/12/11 01:12:17;;;;;;;46.23;20.33;;;2.00;99.90;;;-0.15;100.00;99229.97;10398108;28;96664;-78
2021/12/11 01:18:00;;;;;;;50.67;20.73;;;2.00;99.90;;;-0.14;100.00;99236.84;10382139;28;96608;-78
2021/12/11 01:23:26;;;;;;;57.95;22.48;;;2.10;99.90;;;-0.12;100.00;99239.31;10396939;28;96576;-78
2021/12/11 01:28:31;;;;;;;44.07;19.33;;;2.10;99.90;;;-0.10;100.00;99237.44;10397146;28;96573;-78
2021/12/11 01:33:35;;;;;;;46.27;19.07;;;2.10;99.90;;;-0.07;100.00;99240.59;10402872;28;96765;-78
2021/12/11 01:38:40;;;;;;;49.83;20.00;;;2.10;99.90;;;-0.04;100.00;99239.56;10415055;28;96726;-78
2021/12/11 01:43:48;;;;;;;52.87;21.23;;;2.10;99.90;;;-0.04;100.00;99234.31;10415525;28;96741;-78
2021/12/11 01:49:00;;;;;;;55.67;22.80;;;2.20;99.90;;;-0.03;100.00;99251.66;10416606;28;96455;-78
2021/12/11 01:54:17;;;;;;;63.47;24.05;;;2.20;99.90;;;-0.03;100.00;99246.44;10413965;28;96645;-78
2021/12/11 01:59:30;;;;;;;48.90;22.13;;;2.20;99.90;;;-0.03;100.00;99247.25;10392464;28;96569;-78
2021/12/11 02:04:43;;;;;;;47.77;20.27;;;2.20;99.90;;;-0.04;100.00;99247.38;10406700;28;98905;-78
2021/12/11 02:09:55;;;;;;;40.73;19.27;;;2.10;99.90;;;-0.05;100.00;99256.19;10363636;28;96645;-78
2021/12/11 02:15:01;;;;;;;42.73;19.83;;;2.10;99.90;;;-0.05;100.00;99248.34;10377520;28;96474;-78
2021/12/11 02:20:10;;;;;;;44.07;20.23;;;2.10;99.90;;;-0.06;100.00;99255.34;10382394;28;96588;-80
2021/12/11 02:25:26;;;;;;;48.40;21.97;;;2.10;99.90;;;-0.08;100.00;99246.78;10372117;28;96982;-80
2021/12/11 02:30:41;;;;;;;41.87;19.63;;;2.10;99.90;;;-0.09;100.00;99252.16;10369896;28;96890;-78
2021/12/11 02:36:09;;;;;;;51.77;21.90;;;2.10;99.90;;;-0.10;100.00;99240.88;10401185;28;96534;-79
2021/12/11 02:41:20;;;;;;;45.70;20.27;;;2.10;99.90;;;-0.12;100.00;99237.56;10400242;28;96769;-79
2021/12/11 02:46:36;;;;;;;47.67;20.93;;;2.10;99.90;;;-0.13;100.00;99235.06;10401862;28;96469;-79
2021/12/11 02:51:50;;;;;;;46.40;19.57;;;2.00;99.90;;;-0.14;100.00;99230.78;10394631;28;96582;-79
2021/12/11 02:57:02;;;;;;;42.43;18.13;;;2.00;99.90;;;-0.17;100.00;99234.50;10394449;28;96516;-79
2021/12/11 03:02:26;;;;;;;45.13;18.33;;;2.00;99.90;;;-0.16;100.00;99230.91;10405237;28;96584;-79
2021/12/11 03:07:36;;;;;;;51.37;20.53;;;2.00;99.90;;;-0.16;100.00;99241.38;10386886;28;96548;-79
2021/12/11 03:12:41;;;;;;;44.47;19.10;;;2.00;99.90;;;-0.16;100.00;99236.16;10382642;28;96837;-78
2021/12/11 03:17:45;;;;;;;48.00;19.40;;;2.00;99.90;;;-0.16;100.00;99230.91;10412400;28;96645;-79
2021/12/11 03:22:49;;;;;;;44.37;19.47;;;2.00;99.90;;;-0.17;100.00;99231.88;10374942;28;96473;-79
2021/12/11 03:27:52;;;;;;;46.33;18.73;;;2.00;99.90;;;-0.17;100.00;99233.66;10389003;28;96562;-79
2021/12/11 03:33:06;;;;;;;56.27;21.73;;;2.00;99.90;;;-0.18;100.00;99245.03;10383468;28;96652;-80
2021/12/11 03:38:11;;;;;;;43.60;19.10;;;2.00;99.90;;;-0.17;100.00;99265.00;10407795;28;96458;-80
2021/12/11 03:43:22;;;;;;;44.30;18.13;;;2.00;99.90;;;-0.17;100.00;99257.16;10423570;27;97786;-78
2021/12/11 03:48:34;;;;;;;45.47;18.63;;;2.00;99.90;;;-0.17;100.00;99278.06;10400671;28;97059;-78
2021/12/11 03:53:39;;;;;;;46.57;18.90;;;2.00;99.90;;;-0.16;100.00;99282.31;10409643;28;96651;-78
2021/12/11 03:58:51;;;;;;;40.27;19.13;;;2.00;99.90;;;-0.14;100.00;99285.63;10382216;28;96482;-78
2021/12/11 04:04:03;;;;;;;43.83;17.70;;;2.00;99.90;;;-0.12;100.00;99288.94;10383455;28;97060;-78
2021/12/11 04:09:11;;;;;;;44.80;20.02;;;2.00;99.90;;;-0.12;100.00;99291.56;10412051;28;96838;-78
2021/12/11 04:14:19;;;;;;;46.87;18.20;;;2.00;99.90;;;-0.12;100.00;99289.78;10381490;28;96557;-78
2021/12/11 04:19:23;;;;;;;36.20;16.37;;;2.10;99.90;;;-0.10;100.00;99298.31;10401412;28;96633;-78
2021/12/11 04:24:31;;;;;;;42.93;18.27;;;2.10;99.90;;;-0.10;100.00;99293.09;10419234;28;96696;-78
2021/12/11 04:29:34;;;;;;;40.60;16.73;;;2.10;99.90;;;-0.10;100.00;99292.28;10383052;28;96573;-78
2021/12/11 04:34:37;;;;;;;45.77;18.40;;;2.10;99.90;;;-0.10;100.00;99292.28;10382530;28;96975;-78
2021/12/11 04:39:49;;;;;;;43.80;17.77;;;2.00;99.90;;;-0.10;100.00;99293.09;10415450;27;96780;-78
2021/12/11 04:44:54;;;;;;;46.15;18.65;;;2.10;99.90;;;-0.11;100.00;99293.22;10401455;28;96493;-78
2021/12/11 04:50:04;;;;;;;42.07;17.00;;;2.10;99.90;;;-0.08;100.00;99291.19;10382230;27;96651;-80
2021/12/11 05:00:53;;;;;;;39.67;16.67;;;2.10;99.90;;;-0.10;100.00;99318.41;10381818;28;97043;-78
2021/12/11 05:06:18;;;;;;;36.90;16.50;;;2.10;99.90;;;-0.08;100.00;99311.25;10381137;28;97537;-78
2021/12/11 05:11:32;;;;;;;38.00;16.17;;;2.10;99.90;;;-0.09;100.00;99315.66;10391420;28;96661;-78
2021/12/11 05:16:35;;;;;;;35.23;15.53;;;2.10;99.90;;;-0.12;100.00;99320.28;10407067;28;96558;-78
2021/12/11 05:21:40;;;;;;;37.33;15.17;;;2.00;99.90;;;-0.11;100.00;99329.78;10415245;27;96559;-78
2021/12/11 05:26:44;;;;;;;35.53;14.40;;;2.00;99.90;;;-0.10;100.00;99329.66;10400148;28;96517;-78
2021/12/11 05:31:48;;;;;;;39.43;17.30;;;2.10;99.90;;;-0.09;100.00;99340.94;10403211;28;96567;-78
2021/12/11 05:36:51;;;;;;;37.73;16.10;;;2.10;99.90;;;-0.05;100.00;99347.59;10383851;28;96644;-78
2021/12/11 05:41:53;;;;;;;32.87;14.87;;;2.10;99.90;;;-0.05;100.00;99340.59;10380752;27;96647;-78
2021/12/11 05:46:57;;;;;;;41.80;15.80;;;2.10;99.90;;;-0.04;100.00;99349.25;10380611;28;98009;-78
2021/12/11 05:52:06;;;;;;;36.50;15.63;;;2.10;99.90;;;-0.06;100.00;99357.22;10381336;28;96605;-78
2021/12/11 05:57:13;;;;;;;32.67;13.77;;;2.20;99.90;;;-0.05;100.00;99369.31;10406309;28;96586;-78
2021/12/11 06:02:25;;;;;;;40.20;16.27;;;2.10;99.90;;;-0.02;100.00;99378.69;10394096;28;97640;-78
2021/12/11 06:07:31;;;;;;;44.28;18.48;;;2.10;99.90;;;-0.04;100.00;99377.97;10390742;28;96710;-78
2021/12/11 06:12:34;;;;;;;31.93;14.27;;;2.10;99.90;;;-0.05;100.00;99384.16;10385203;28;96965;-78
2021/12/11 06:17:42;;;;;;;33.03;14.53;;;2.10;99.90;;;-0.05;100.00;99395.44;10396999;28;96625;-78
2021/12/11 06:22:46;;;;;;;30.47;13.23;;;2.10;99.90;;;-0.05;100.00;99407.66;10403793;28;98129;-79
2021/12/11 06:27:50;;;;;;;26.57;10.87;;;2.10;99.90;;;-0.04;100.00;99431.03;10386103;28;96676;-78
2021/12/11 06:32:55;;;;;;;23.07;10.50;;;2.10;99.90;;;-0.04;100.00;99443.28;10398148;28;96648;-78
2021/12/11 06:37:59;;;;;;;23.23;11.40;;;2.20;99.90;;;-0.03;100.00;99455.38;10377750;28;96581;-78
2021/12/11 06:43:03;;;;;;;22.13;11.13;;;2.10;99.90;;;-0.04;100.00;99469.41;10392196;28;97983;-77
2021/12/11 06:48:06;;;;;;;21.70;11.00;;;2.10;99.90;;;-0.03;100.00;99489.34;10375806;28;96609;-77
2021/12/11 06:53:16;;;;;;;17.50;9.27;;;2.20;99.90;;;-0.02;100.00;99506.66;10376486;28;96489;-78
2021/12/11 06:58:20;;;;;;;20.07;9.27;;;2.20;99.90;;;0.02;100.00;99509.88;10385689;28;96502;-78
2021/12/11 07:03:22;;;;;;;17.13;8.57;;;2.20;99.90;;;0.05;100.00;99510.47;10400793;27;96567;-79
2021/12/11 07:08:29;;;;;;;20.77;11.43;;;2.20;99.90;;;0.06;100.00;99506.94;10372353;28;96691;-79
2021/12/11 07:13:33;;;;;;;19.40;9.77;;;2.20;99.90;;;0.10;100.00;99520.56;10386802;28;96477;-79
2021/12/11 07:18:37;;;;;;;19.77;10.97;;;2.30;99.90;;;0.11;100.00;99537.91;10414905;28;96549;-79
2021/12/11 07:23:47;;;;;;;21.70;10.63;;;2.30;99.90;;;0.15;100.00;99545.41;10379441;28;96531;-80
2021/12/11 07:28:55;;;;;;;20.73;10.47;;;2.30;99.90;;;0.21;100.00;99567.59;10378553;28;96374;-79
2021/12/11 07:33:59;;;;;;;26.37;11.53;;;2.40;99.90;;;0.25;100.00;99569.06;10405787;28;96571;-80
2021/12/11 07:39:08;;;;;;;25.80;12.63;;;2.40;99.90;;;0.31;100.00;99584.25;10409205;27;96603;-79
2021/12/11 07:44:11;;;;;;;13.53;6.97;;;2.50;99.90;;;0.34;100.00;99581.41;10413457;28;98314;-79
2021/12/11 07:49:15;;;;;;;18.20;8.63;;;2.50;99.90;;;0.39;100.00;99601.97;10385120;28;96632;-80
2021/12/11 07:54:20;;;;;;;43.10;17.53;;;2.50;99.90;;;0.43;100.00;99604.22;10389744;28;96629;-80
2021/12/11 07:59:23;;;;;;;34.67;14.43;;;2.60;99.90;;;0.48;100.00;99611.69;10408427;28;96555;-77
2021/12/11 08:04:26;;;;;;;17.70;8.07;;;2.60;99.90;;;0.53;100.00;99612.19;10397849;28;97459;-78
2021/12/11 08:09:30;;;;;;;14.07;7.00;;;2.70;99.90;;;0.58;100.00;99610.03;10368825;28;96598;-79
2021/12/11 08:14:33;;;;;;;13.33;7.43;;;2.70;99.90;;;0.64;100.00;99601.72;10398496;27;97039;-79
2021/12/11 08:19:36;;;;;;;13.03;6.67;;;2.80;99.90;;;0.68;100.00;99611.00;10381261;28;96717;-80
2021/12/11 08:24:40;;;;;;;12.50;6.00;;;2.80;99.90;;;0.72;99.97;99616.81;10394754;28;96635;-79
2021/12/11 08:29:46;;;;;;;14.60;7.60;;;2.80;99.90;;;0.74;99.70;99626.22;10392466;28;98180;-80
2021/12/11 08:34:50;;;;;;;11.40;5.60;;;2.90;99.90;;;0.75;99.50;99620.03;10392945;28;96473;-81
2021/12/11 08:39:53;;;;;;;11.73;5.77;;;2.90;99.90;;;0.75;98.75;99627.03;10385030;28;96506;-81
2021/12/11 08:45:05;;;;;;;10.30;5.77;;;2.90;99.90;;;0.73;98.44;99632.41;10413483;28;97241;-81
2021/12/11 08:50:13;;;;;;;8.87;5.70;;;2.80;99.90;;;0.75;97.71;99637.50;10372586;28;98239;-80
2021/12/11 08:55:34;;;;;;;13.23;6.73;;;2.90;99.90;;;0.77;97.42;99641.66;10392341;28;97955;-81
2021/12/11 09:00:54;;;;;;;10.90;5.63;;;2.90;99.90;;;0.77;97.08;99648.66;10388152;28;96702;-80
2021/12/11 09:06:06;;;;;;;10.20;5.47;;;2.90;99.90;;;0.76;96.75;99647.84;10394219;27;96485;-80
2021/12/11 09:11:39;;;;;;;10.25;5.82;;;2.80;99.90;;;0.74;95.66;99654.16;10380306;28;96484;-80
2021/12/11 09:16:47;;;;;;;9.97;4.97;;;2.80;99.90;;;0.72;95.75;99649.06;10408503;28;96526;-80
2021/12/11 09:22:08;;;;;;;10.90;5.73;;;2.80;99.90;;;0.74;95.56;99657.59;10422578;27;96578;-80
2021/12/11 09:27:20;;;;;;;9.57;4.80;;;2.80;99.90;;;0.73;95.41;99658.56;10421718;27;97861;-80
2021/12/11 09:32:49;;;;;;;12.27;6.30;;;2.80;99.90;;;0.72;95.01;99656.91;10421939;28;96783;-80
2021/12/11 09:37:58;;;;;;;11.30;5.73;;;2.80;99.90;;;0.72;94.47;99667.34;10419751;28;96611;-80
2021/12/11 09:43:04;;;;;;;12.33;6.20;;;2.80;99.90;;;0.74;94.73;99670.69;10417115;28;97312;-80
2021/12/11 09:48:17;;;;;;;10.43;5.40;;;2.80;99.90;;;0.80;94.63;99679.84;10392937;28;96623;-80
2021/12/11 09:53:30;;;;;;;10.97;5.23;;;2.90;99.90;;;0.87;94.97;99690.66;10391952;28;98312;-86
2021/12/11 09:58:36;;;;;;;12.57;6.80;;;3.00;99.90;;;0.89;94.64;99693.97;10372263;28;96884;-86
2021/12/11 10:03:52;;;;;;;12.30;6.17;;;3.00;99.90;;;0.91;94.36;99698.16;10405686;28;96638;-87
2021/12/11 10:09:09;;;;;;;13.03;6.80;;;3.00;99.90;;;0.92;93.86;99704.22;10375500;28;96415;-83
2021/12/11 10:14:17;;;;;;;10.67;6.43;;;3.00;99.90;;;0.91;93.67;99692.91;10382536;28;96654;-83
2021/12/11 10:19:29;;;;;;;10.93;6.20;;;3.00;99.90;;;0.93;93.40;99690.19;10392178;27;98044;-82
2021/12/11 10:24:34;;;;;;;13.10;7.90;;;3.00;99.90;;;0.94;93.32;99684.81;10389455;28;98820;-82
2021/12/11 10:29:37;;;;;;;11.70;6.73;;;3.00;99.90;;;0.94;92.94;99681.38;10402843;28;96906;-81
2021/12/11 10:34:45;;;;;;;13.97;8.20;;;3.00;99.90;;;0.93;92.70;99684.94;10383239;28;97038;-81
2021/12/11 10:39:53;;;;;;;13.83;7.17;;;3.00;99.90;;;0.96;92.93;99689.94;10397407;28;96637;-81
2021/12/11 10:44:59;;;;;;;14.30;6.67;;;3.00;99.90;;;0.94;92.98;99684.81;10395691;28;96479;-81
2021/12/11 10:50:28;;;;;;;11.27;6.65;;;3.00;99.90;;;0.98;92.80;99674.97;10402780;28;96617;-82
2021/12/11 10:55:34;;;;;;;15.17;8.77;;;3.10;99.90;;;1.02;93.09;99681.59;10377947;28;97736;-80
2021/12/11 11:00:47;;;;;;;12.43;6.80;;;3.10;99.90;;;1.10;92.69;99681.03;10376141;28;96738;-79
2021/12/11 11:05:51;;;;;;;14.97;8.47;;;3.20;99.90;;;1.19;93.40;99677.66;10381794;28;96684;-79
2021/12/11 11:11:01;;;;;;;14.83;8.30;;;3.30;99.90;;;1.25;93.26;99670.16;10362925;28;96479;-79
2021/12/11 11:16:05;;;;;;;12.50;6.70;;;3.30;99.90;;;1.32;92.79;99681.84;10409155;28;96590;-79
2021/12/11 11:21:12;;;;;;;16.83;8.23;;;3.40;99.90;;;1.39;93.01;99666.47;10402198;28;96492;-79
2021/12/11 11:26:27;;;;;;;15.57;7.43;;;3.50;99.90;;;1.45;92.32;99667.75;10416315;28;97454;-80
2021/12/11 11:31:36;;;;;;;10.33;6.07;;;3.50;99.90;;;1.48;91.77;99657.03;10405442;28;96804;-79
2021/12/11 11:36:40;;;;;;;14.43;6.53;;;3.50;99.90;;;1.51;91.09;99657.63;10400940;27;97418;-81
2021/12/11 11:41:56;;;;;;;15.97;7.63;;;3.60;99.90;;;1.56;91.18;99652.84;10376153;28;96707;-81
2021/12/11 11:47:06;;;;;;;25.80;11.50;;;3.60;99.90;;;1.61;91.40;99647.22;10368784;28;97426;-79
2021/12/11 11:52:19;;;;;;;19.87;10.30;;;3.70;99.90;;;1.62;91.08;99643.69;10365916;28;96421;-81
2021/12/11 11:57:32;;;;;;;18.43;10.60;;;3.70;99.90;;;1.60;91.17;99656.88;10397721;28;98400;-81
2021/12/11 12:02:35;;;;;;;18.67;9.97;;;3.70;99.90;;;1.58;90.56;99665.81;10394450;28;97235;-79
2021/12/11 12:07:40;;;;;;;17.10;8.90;;;3.60;99.90;;;1.59;91.08;99673.53;10385135;28;96614;-81
2021/12/11 12:12:44;;;;;;;19.57;9.60;;;3.70;99.90;;;1.59;90.98;99683.19;10389804;28;98577;-81
2021/12/11 12:17:47;;;;;;;13.87;8.10;;;3.70;99.90;;;1.56;90.19;99688.66;10393196;28;98307;-79
2021/12/11 12:22:53;;;;;;;13.87;7.70;;;3.60;99.90;;;1.52;90.28;99697.75;10389995;28;98178;-81
2021/12/11 12:27:57;;;;;;;15.13;7.93;;;3.60;99.90;;;1.48;90.15;99685.84;10394235;28;96752;-86
2021/12/11 12:33:02;;;;;;;15.40;8.07;;;3.60;99.90;;;1.43;89.88;99719.41;10391650;28;97095;-82
2021/12/11 12:38:10;;;;;;;39.17;14.47;;;3.50;99.90;;;1.43;90.29;99724.63;10389611;28;96702;-82
2021/12/11 12:43:42;;;;;;;31.63;11.37;;;3.50;99.90;;;1.43;91.08;99735.94;10401407;28;97051;-83
2021/12/11 12:48:53;;;;;;;57.27;15.63;;;3.50;99.90;;;1.41;91.07;99726.56;10387481;28;96810;-83
2021/12/11 12:53:57;;;;;;;22.97;10.40;;;3.50;99.90;;;1.37;91.18;99725.13;10386670;28;97050;-81
2021/12/11 12:59:18;;;;;;;22.13;10.60;;;3.50;99.90;;;1.30;90.76;99716.91;10391055;28;98150;-81
2021/12/11 13:04:32;;;;;;;20.93;10.83;;;3.50;99.90;;;1.26;91.42;99700.66;10395115;27;96594;-81
2021/12/11 13:09:50;;;;;;;24.13;11.97;;;3.40;99.90;;;1.24;91.36;99710.38;10379150;28;98518;-85
2021/12/11 13:14:57;;;;;;;27.90;13.17;;;3.40;99.90;;;1.22;91.63;99709.69;10370371;28;98499;-85
2021/12/11 13:20:21;;;;;;;30.90;14.90;;;3.30;99.90;;;1.22;91.99;99714.09;10372040;28;97561;-84
2021/12/11 13:25:32;;;;;;;33.67;15.73;;;3.30;99.90;;;1.19;91.92;99709.91;10378234;28;98496;-80
2021/12/11 13:30:51;;;;;;;29.60;13.90;;;3.30;99.90;;;1.17;91.94;99709.19;10381958;28;97368;-79
2021/12/11 13:35:58;;;;;;;24.93;12.23;;;3.20;99.90;;;1.15;92.15;99718.97;10381251;28;97057;-80
2021/12/11 13:41:25;;;;;;;96.37;43.60;;;3.20;99.90;;;1.16;92.07;99722.41;10386227;28;98470;-80
2021/12/11 13:46:48;;;;;;;24.10;11.50;;;3.20;99.90;;;1.12;92.00;99711.34;10401615;28;97494;-81
2021/12/11 13:51:52;;;;;;;26.20;13.47;;;3.20;99.90;;;1.11;91.99;99707.06;10390693;28;96945;-81
2021/12/11 13:57:02;;;;;;;29.50;13.27;;;3.20;99.90;;;1.11;92.53;99720.16;10360582;28;96612;-81
2021/12/11 14:02:05;;;;;;;22.07;11.70;;;3.20;99.90;;;1.10;92.45;99731.56;10389924;28;96836;-82
2021/12/11 14:07:14;;;;;;;23.20;11.77;;;3.20;99.90;;;1.11;92.62;99735.84;10400010;28;97524;-81
2021/12/11 14:12:21;;;;;;;23.47;10.27;;;3.20;99.90;;;1.10;92.30;99749.06;10395330;28;96953;-81
2021/12/11 14:17:27;;;;;;;25.13;11.13;;;3.20;99.90;;;1.09;92.32;99747.41;10363191;28;96501;-82
2021/12/11 14:22:34;;;;;;;21.80;10.73;;;3.20;99.90;;;1.09;92.31;99748.22;10394006;28;98444;-81
2021/12/11 14:27:38;;;;;;;22.47;10.47;;;3.20;99.90;;;1.05;92.21;99754.66;10396585;28;97552;-81
2021/12/11 14:32:49;;;;;;;38.93;16.30;;;3.20;99.90;;;1.03;92.39;99748.69;10372479;28;97960;-81
2021/12/11 14:37:55;;;;;;;26.17;13.27;;;3.20;99.90;;;0.99;92.34;99778.66;10402674;28;96528;-81
2021/12/11 14:42:59;;;;;;;27.47;11.53;;;3.10;99.90;;;0.97;92.29;99770.09;10377017;28;96536;-79
2021/12/11 14:48:05;;;;;;;21.30;10.67;;;3.10;99.90;;;0.92;92.34;99773.06;10375382;28;98282;-79
2021/12/11 14:53:13;;;;;;;56.10;18.07;;;3.10;99.90;;;0.88;92.65;99796.94;10379011;28;96757;-80
2021/12/11 14:58:18;;;;;;;33.83;14.93;;;3.00;99.90;;;0.86;93.17;99802.31;10367942;28;98291;-79
2021/12/11 15:03:21;;;;;;;39.20;19.40;;;3.00;99.90;;;0.81;93.08;99812.28;10394875;28;97136;-79
2021/12/11 15:08:27;;;;;;;51.47;22.13;;;3.00;99.90;;;0.77;93.25;99811.66;10381855;28;96914;-80
2021/12/11 15:13:30;;;;;;;32.43;14.90;;;3.00;99.90;;;0.74;93.33;99814.53;10386618;28;97557;-80
2021/12/11 15:18:34;;;;;;;23.47;12.10;;;2.90;99.90;;;0.73;93.80;99817.25;10392302;28;97950;-81
2021/12/11 15:23:39;;;;;;;28.87;14.13;;;2.90;99.90;;;0.71;94.01;99819.97;10377735;28;96921;-87
2021/12/11 15:28:42;;;;;;;32.70;16.13;;;2.90;99.90;;;0.71;94.06;99824.38;10385119;28;96832;-80
2021/12/11 15:33:51;;;;;;;30.63;13.70;;;2.90;99.90;;;0.69;94.28;99813.19;10386119;28;96638;-81
2021/12/11 15:39:02;;;;;;;29.13;14.70;;;2.90;99.90;;;0.63;94.36;99826.72;10395466;28;96593;-81
2021/12/11 15:44:05;;;;;;;91.97;35.00;;;2.80;99.90;;;0.54;94.35;99820.41;10415704;28;97002;-80
2021/12/11 15:49:09;;;;;;;48.63;21.07;;;2.70;99.90;;;0.45;94.39;99819.28;10390428;28;98933;-80
2021/12/11 15:54:14;;;;;;;59.83;25.20;;;2.70;99.90;;;0.37;94.65;99815.59;10380674;28;97076;-81
2021/12/11 15:59:18;;;;;;;60.90;26.80;;;2.60;99.90;;;0.28;94.36;99805.78;10377804;28;96926;-81
2021/12/11 16:04:26;;;;;;;53.37;23.20;;;2.50;99.90;;;0.20;95.12;99801.97;10382957;28;96958;-81
2021/12/11 16:09:30;;;;;;;70.03;24.57;;;2.50;99.90;;;0.14;94.96;99828.53;10388036;28;96518;-81
2021/12/11 16:14:35;;;;;;;82.80;30.97;;;2.40;99.90;;;0.09;95.14;99829.81;10396511;28;96478;-81
2021/12/11 16:19:42;;;;;;;71.10;28.83;;;2.40;99.90;;;0.04;95.61;99837.13;10387213;28;98327;-81
2021/12/11 16:24:51;;;;;;;51.57;23.53;;;2.30;99.90;;;-0.02;96.17;99847.06;10391343;28;96655;-81
2021/12/11 16:29:54;;;;;;;48.03;21.20;;;2.30;99.90;;;-0.01;96.38;99866.19;10406430;28;96661;-81
2021/12/11 16:34:57;;;;;;;60.47;23.80;;;2.20;99.90;;;-0.03;96.22;99881.97;10380431;27;98297;-81
2021/12/11 16:40:11;;;;;;;38.23;16.20;;;2.20;99.90;;;-0.06;96.87;99887.44;10392914;28;98982;-80
2021/12/11 16:45:19;;;;;;;94.77;28.07;;;2.20;99.90;;;-0.05;96.79;99890.88;10383747;28;96760;-80
2021/12/11 16:50:24;;;;;;;54.83;20.57;;;2.20;99.90;;;-0.09;96.77;99900.69;10409944;28;96500;-80
2021/12/11 16:55:28;;;;;;;42.57;18.67;;;2.20;99.90;;;-0.12;97.08;99906.16;10399540;28;96653;-80
2021/12/11 17:00:33;;;;;;;33.53;18.43;;;2.10;99.90;;;-0.15;97.20;99906.34;10402415;28;97262;-82
2021/12/11 17:05:37;;;;;;;27.67;15.43;;;2.10;99.90;;;-0.19;97.18;99904.03;10390436;28;97380;-82
2021/12/11 17:10:48;;;;;;;32.03;14.90;;;2.10;99.90;;;-0.18;97.62;99914.41;10405188;28;96742;-80
2021/12/11 17:15:51;;;;;;;61.33;23.13;;;2.10;99.90;;;-0.18;97.10;99910.94;10397450;28;96880;-80
2021/12/11 17:20:58;;;;;;;51.90;23.73;;;2.10;99.90;;;-0.20;97.25;99916.28;10418984;28;98372;-80
2021/12/11 17:26:02;;;;;;;98.50;36.57;;;2.00;99.90;;;-0.21;97.77;99921.63;10394849;28;98146;-80
2021/12/11 17:31:07;;;;;;;42.03;20.57;;;2.00;99.90;;;-0.21;97.60;99916.38;10388334;28;96518;-80
2021/12/11 17:36:11;;;;;;;37.17;18.27;;;2.10;99.90;;;-0.22;97.63;99906.88;10409665;28;96479;-80
2021/12/11 17:41:14;;;;;;;31.70;16.10;;;2.00;99.90;;;-0.22;97.81;99902.50;10411982;28;96527;-80
2021/12/11 17:46:23;;;;;;;38.47;18.20;;;2.00;99.90;;;-0.21;97.50;99908.56;10389478;28;96543;-80
2021/12/11 17:51:28;;;;;;;37.17;18.10;;;2.00;99.90;;;-0.17;97.72;99896.97;10389470;28;96944;-80
2021/12/11 17:56:32;;;;;;;39.30;17.93;;;2.00;99.90;;;-0.12;98.09;99900.06;10383227;28;96767;-80
2021/12/11 18:02:08;;;;;;;29.73;14.53;;;2.10;99.90;;;-0.04;97.59;99901.22;10378307;28;96579;-80
2021/12/11 18:07:38;;;;;;;28.23;14.67;;;2.10;99.90;;;0.06;98.05;99922.31;10375287;28;96595;-80
2021/12/11 18:12:51;;;;;;;24.27;12.23;;;2.20;99.90;;;0.11;97.38;99937.66;10387381;28;98235;-79
2021/12/11 18:18:10;;;;;;;31.77;13.83;;;2.30;99.90;;;0.14;97.29;99951.34;10402358;28;97906;-80
2021/12/11 18:23:14;;;;;;;40.37;17.67;;;2.30;99.90;;;0.13;97.33;99947.06;10381605;28;98284;-80
2021/12/11 18:28:17;;;;;;;30.67;14.67;;;2.30;99.90;;;0.11;97.29;99948.09;10385065;28;98589;-80
2021/12/11 18:33:27;;;;;;;239.23;82.50;;;2.30;99.90;;;0.08;97.53;99959.63;10378936;28;98127;-80
2021/12/11 18:38:30;;;;;;;29.83;14.83;;;2.30;99.90;;;0.06;97.32;99958.91;10400929;28;96907;-80
2021/12/11 18:43:37;;;;;;;131.33;53.10;;;2.30;99.90;;;0.05;97.72;99965.03;10401062;28;97013;-80
2021/12/11 18:48:40;;;;;;;37.93;17.40;;;2.30;99.90;;;0.06;97.74;99965.88;10388780;28;98082;-80
2021/12/11 18:53:48;;;;;;;34.43;14.23;;;2.30;99.90;;;0.05;97.43;99970.25;10392270;28;96746;-81
2021/12/11 18:58:58;;;;;;;48.53;20.00;;;2.30;99.90;;;0.04;97.69;99978.22;10415369;27;97119;-81
2021/12/11 19:04:09;;;;;;;27.73;12.80;;;2.30;99.90;;;0.01;97.40;99981.06;10367809;28;96538;-80
2021/12/11 19:09:18;;;;;;;25.92;13.77;;;2.20;99.90;;;0.01;97.80;99968.81;10400382;28;96851;-80
2021/12/11 19:14:25;;;;;;;43.93;19.90;;;2.20;99.90;;;0.01;97.43;99974.03;10381945;28;98453;-80
2021/12/11 19:19:28;;;;;;;40.73;16.53;;;2.30;99.90;;;-0.01;97.77;99976.75;10378144;28;96498;-80
2021/12/11 19:24:32;;;;;;;32.03;14.37;;;2.20;99.90;;;-0.04;97.94;99979.56;10412898;28;98057;-80
2021/12/11 19:29:56;;;;;;;47.43;18.83;;;2.20;99.90;;;-0.10;98.05;100002.69;10379180;28;96917;-79
2021/12/11 19:34:59;;;;;;;33.30;17.83;;;2.20;99.90;;;-0.14;97.42;100001.19;10373769;28;96603;-80
2021/12/11 19:40:15;;;;;;;24.83;12.87;;;2.10;99.90;;;-0.20;97.62;100004.22;10386327;28;96685;-79
2021/12/11 19:45:18;;;;;;;26.63;12.47;;;2.10;99.90;;;-0.21;97.64;100023.47;10397104;28;96578;-80
2021/12/11 19:50:23;;;;;;;29.90;13.57;;;2.00;99.90;;;-0.23;97.71;100020.13;10374675;28;97539;-80
2021/12/11 19:55:30;;;;;;;31.30;14.27;;;2.00;99.90;;;-0.24;97.62;100027.13;10375727;28;96722;-80
2021/12/11 20:00:48;;;;;;;40.67;18.83;;;2.00;99.90;;;-0.23;97.38;100036.63;10387558;28;96672;-80
2021/12/11 20:05:57;;;;;;;31.30;14.23;;;2.00;99.90;;;-0.23;97.40;100048.84;10402695;28;97260;-80
2021/12/11 20:11:10;;;;;;;28.70;14.90;;;2.00;99.90;;;-0.24;97.31;100042.78;10366015;28;97115;-80
2021/12/11 20:16:20;;;;;;;36.60;17.55;;;1.90;99.90;;;-0.26;97.11;100039.44;10382070;28;96667;-80
2021/12/11 20:21:35;;;;;;;24.73;12.00;;;1.90;99.90;;;-0.29;96.95;100048.31;10389274;28;97070;-79
2021/12/11 20:26:41;;;;;;;29.30;13.93;;;1.90;99.90;;;-0.32;97.25;100048.50;10402634;28;96584;-80
2021/12/11 20:31:49;;;;;;;28.47;13.77;;;1.90;99.90;;;-0.34;96.96;100042.56;10408604;28;96561;-80
2021/12/11 20:36:51;;;;;;;24.33;13.13;;;1.80;99.90;;;-0.35;96.75;100043.50;10364831;28;98164;-80
2021/12/11 20:42:00;;;;;;;23.03;12.23;;;1.80;99.90;;;-0.34;97.12;100026.06;10391184;28;97555;-80
2021/12/11 20:47:07;;;;;;;24.97;13.20;;;1.80;99.90;;;-0.35;96.98;100020.00;10407117;28;96494;-80
2021/12/11 20:52:12;;;;;;;27.83;13.73;;;1.80;99.90;;;-0.36;96.82;100015.72;10415984;27;98215;-80
2021/12/11 20:57:15;;;;;;;57.80;19.30;;;1.80;99.90;;;-0.37;97.04;100011.41;10412223;28;96769;-79
2021/12/11 21:02:25;;;;;;;29.97;15.20;;;1.80;99.90;;;-0.34;97.09;100013.00;10397131;28;96606;-83
2021/12/11 21:07:40;;;;;;;23.20;12.17;;;1.80;99.90;;;-0.27;97.18;100011.66;10381662;28;97792;-80
2021/12/11 21:12:55;;;;;;;28.00;12.57;;;1.90;99.90;;;-0.20;97.20;100009.47;10401282;28;96581;-80
2021/12/11 21:18:01;;;;;;;22.67;11.60;;;1.90;99.90;;;-0.11;97.33;100004.47;10395725;28;98345;-79
2021/12/11 21:23:11;;;;;;;24.43;10.57;;;2.00;99.90;;;0.00;96.72;100003.72;10396436;28;96597;-80